sensor_id;sensor_type;location;lat;lon;timestamp;temperature;humidity
8537;DHT22;4306;50.210;10.628;2024-03-02T00:00:51;6.00;99.90
8537;DHT22;4306;50.210;10.628;2024-03-02T00:03:19;5.90;99.90
8537;DHT22;4306;50.210;10.628;2024-03-02T00:05:49;5.80;99.90
8537;DHT22;4306;50.210;10.628;2024-03-02T00:08:23;5.70;99.90
8537;DHT22;4306;50.210;10.628;2024-03-02T00:10:52;5.80;99.90
8537;DHT22;4306;50.210;10.628;2024-03-02T00:13:24;5.60;99.90
8537;DHT22;4306;50.210;10.628;2024-03-02T00:15:54;5.40;99.90
8537;DHT22;4306;50.210;10.628;2024-03-02T00:18:26;5.40;99.90
8537;DHT22;4306;50.210;10.628;2024-03-02T00:20:54;5.60;99.90
8537;DHT22;4306;50.210;10.628;2024-03-02T00:23:23;5.50;99.90
8537;DHT22;4306;50.210;10.628;2024-03-02T00:25:53;5.60;99.90
8537;DHT22;4306;50.210;10.628;2024-03-02T00:28:22;5.70;99.90
8537;DHT22;4306;50.210;10.628;2024-03-02T00:31:02;5.80;99.90
8537;DHT22;4306;50.210;10.628;2024-03-02T00:33:32;5.90;99.90
8537;DHT22;4306;50.210;10.628;2024-03-02T00:36:00;5.90;99.90
8537;DHT22;4306;50.210;10.628;2024-03-02T00:38:29;5.90;99.90
8537;DHT22;4306;50.210;10.628;2024-03-02T00:40:58;6.00;99.90
8537;DHT22;4306;50.210;10.628;2024-03-02T00:43:43;5.90;99.90
8537;DHT22;4306;50.210;10.628;2024-03-02T00:46:18;5.90;99.90
8537;DHT22;4306;50.210;10.628;2024-03-02T00:48:53;5.90;99.90
8537;DHT22;4306;50.210;10.628;2024-03-02T00:51:21;6.00;99.90
8537;DHT22;4306;50.210;10.628;2024-03-02T00:53:50;6.00;99.90
8537;DHT22;4306;50.210;10.628;2024-03-02T00:56:18;6.00;99.90
8537;DHT22;4306;50.210;10.628;2024-03-02T00:58:46;6.00;99.90
8537;DHT22;4306;50.210;10.628;2024-03-02T01:01:13;5.90;99.90
8537;DHT22;4306;50.210;10.628;2024-03-02T01:03:43;5.90;99.90
8537;DHT22;4306;50.210;10.628;2024-03-02T01:06:10;5.70;99.90
8537;DHT22;4306;50.210;10.628;2024-03-02T01:08:37;5.60;99.90
8537;DHT22;4306;50.210;10.628;2024-03-02T01:11:05;5.70;99.90
8537;DHT22;4306;50.210;10.628;2024-03-02T01:13:32;5.70;99.90
8537;DHT22;4306;50.210;10.628;2024-03-02T01:16:00;5.70;99.90
8537;DHT22;4306;50.210;10.628;2024-03-02T01:18:28;5.70;99.90
8537;DHT22;4306;50.210;10.628;2024-03-02T01:20:56;5.80;99.90
8537;DHT22;4306;50.210;10.628;2024-03-02T01:23:24;5.80;99.90
8537;DHT22;4306;50.210;10.628;2024-03-02T01:25:51;5.90;99.90
8537;DHT22;4306;50.210;10.628;2024-03-02T01:28:19;5.90;99.90
8537;DHT22;4306;50.210;10.628;2024-03-02T01:30:47;5.90;99.90
8537;DHT22;4306;50.210;10.628;2024-03-02T01:33:14;5.90;99.90
8537;DHT22;4306;50.210;10.628;2024-03-02T01:35:41;6.00;99.90
8537;DHT22;4306;50.210;10.628;2024-03-02T01:38:10;6.10;99.90
8537;DHT22;4306;50.210;10.628;2024-03-02T01:40:38;6.10;99.90
8537;DHT22;4306;50.210;10.628;2024-03-02T01:43:05;6.00;99.90
8537;DHT22;4306;50.210;10.628;2024-03-02T01:45:33;6.10;99.90
8537;DHT22;4306;50.210;10.628;2024-03-02T01:48:01;6.10;99.90
8537;DHT22;4306;50.210;10.628;2024-03-02T01:50:29;6.10;99.90
8537;DHT22;4306;50.210;10.628;2024-03-02T01:52:58;6.10;99.90
8537;DHT22;4306;50.210;10.628;2024-03-02T01:55:27;6.10;99.90
8537;DHT22;4306;50.210;10.628;2024-03-02T01:57:55;6.10;99.90
8537;DHT22;4306;50.210;10.628;2024-03-02T02:00:23;6.10;99.90
8537;DHT22;4306;50.210;10.628;2024-03-02T02:02:52;6.10;99.90
8537;DHT22;4306;50.210;10.628;2024-03-02T02:05:19;6.00;99.90
8537;DHT22;4306;50.210;10.628;2024-03-02T02:07:47;5.80;99.90
8537;DHT22;4306;50.210;10.628;2024-03-02T02:10:14;5.70;99.90
8537;DHT22;4306;50.210;10.628;2024-03-02T02:12:43;5.80;99.90
8537;DHT22;4306;50.210;10.628;2024-03-02T02:15:26;5.90;99.90
8537;DHT22;4306;50.210;10.628;2024-03-02T02:17:54;5.90;99.90
8537;DHT22;4306;50.210;10.628;2024-03-02T02:20:21;5.80;99.90
8537;DHT22;4306;50.210;10.628;2024-03-02T02:23:00;5.80;99.90
8537;DHT22;4306;50.210;10.628;2024-03-02T02:25:27;5.90;99.90
8537;DHT22;4306;50.210;10.628;2024-03-02T02:27:56;5.90;99.90
8537;DHT22;4306;50.210;10.628;2024-03-02T02:30:25;5.90;99.90
8537;DHT22;4306;50.210;10.628;2024-03-02T02:32:53;5.80;99.90
8537;DHT22;4306;50.210;10.628;2024-03-02T02:35:20;5.80;99.90
8537;DHT22;4306;50.210;10.628;2024-03-02T02:37:48;5.90;99.90
8537;DHT22;4306;50.210;10.628;2024-03-02T02:40:18;5.90;99.90
8537;DHT22;4306;50.210;10.628;2024-03-02T02:42:45;5.90;99.90
8537;DHT22;4306;50.210;10.628;2024-03-02T02:45:12;5.90;99.90
8537;DHT22;4306;50.210;10.628;2024-03-02T02:47:40;6.00;99.90
8537;DHT22;4306;50.210;10.628;2024-03-02T02:50:08;6.00;99.90
8537;DHT22;4306;50.210;10.628;2024-03-02T02:52:36;6.00;99.90
8537;DHT22;4306;50.210;10.628;2024-03-02T02:55:06;6.00;99.90
8537;DHT22;4306;50.210;10.628;2024-03-02T02:57:36;6.00;99.90
8537;DHT22;4306;50.210;10.628;2024-03-02T03:00:06;6.00;99.90
8537;DHT22;4306;50.210;10.628;2024-03-02T03:02:39;6.00;99.90
8537;DHT22;4306;50.210;10.628;2024-03-02T03:05:08;5.90;99.90
8537;DHT22;4306;50.210;10.628;2024-03-02T03:07:35;5.90;99.90
8537;DHT22;4306;50.210;10.628;2024-03-02T03:10:03;5.90;99.90
8537;DHT22;4306;50.210;10.628;2024-03-02T03:12:32;5.90;99.90
8537;DHT22;4306;50.210;10.628;2024-03-02T03:15:00;5.90;99.90
8537;DHT22;4306;50.210;10.628;2024-03-02T03:17:30;5.90;99.90
8537;DHT22;4306;50.210;10.628;2024-03-02T03:19:57;5.90;99.90
8537;DHT22;4306;50.210;10.628;2024-03-02T03:22:24;5.80;99.90
8537;DHT22;4306;50.210;10.628;2024-03-02T03:24:51;5.80;99.90
8537;DHT22;4306;50.210;10.628;2024-03-02T03:27:18;5.80;99.90
8537;DHT22;4306;50.210;10.628;2024-03-02T03:29:46;5.70;99.90
8537;DHT22;4306;50.210;10.628;2024-03-02T03:32:14;5.70;99.90
8537;DHT22;4306;50.210;10.628;2024-03-02T03:34:42;5.70;99.90
8537;DHT22;4306;50.210;10.628;2024-03-02T03:37:09;5.70;99.90
8537;DHT22;4306;50.210;10.628;2024-03-02T03:39:36;5.60;99.90
8537;DHT22;4306;50.210;10.628;2024-03-02T03:42:03;5.60;99.90
8537;DHT22;4306;50.210;10.628;2024-03-02T03:44:31;5.60;99.90
8537;DHT22;4306;50.210;10.628;2024-03-02T03:46:58;5.50;99.90
8537;DHT22;4306;50.210;10.628;2024-03-02T03:49:27;5.60;99.90
8537;DHT22;4306;50.210;10.628;2024-03-02T03:51:55;5.50;99.90
8537;DHT22;4306;50.210;10.628;2024-03-02T03:54:22;5.50;99.90
8537;DHT22;4306;50.210;10.628;2024-03-02T03:56:49;5.40;99.90
8537;DHT22;4306;50.210;10.628;2024-03-02T03:59:16;5.40;99.90
8537;DHT22;4306;50.210;10.628;2024-03-02T04:01:43;5.40;99.90
8537;DHT22;4306;50.210;10.628;2024-03-02T04:04:10;5.50;99.90
8537;DHT22;4306;50.210;10.628;2024-03-02T04:06:38;5.40;99.90
8537;DHT22;4306;50.210;10.628;2024-03-02T04:09:05;5.40;99.90
8537;DHT22;4306;50.210;10.628;2024-03-02T04:11:33;5.40;99.90
8537;DHT22;4306;50.210;10.628;2024-03-02T04:14:00;5.40;99.90
8537;DHT22;4306;50.210;10.628;2024-03-02T04:16:27;5.40;99.90
8537;DHT22;4306;50.210;10.628;2024-03-02T04:18:54;5.40;99.90
8537;DHT22;4306;50.210;10.628;2024-03-02T04:21:21;5.40;99.90
8537;DHT22;4306;50.210;10.628;2024-03-02T04:23:49;5.40;99.90
8537;DHT22;4306;50.210;10.628;2024-03-02T04:26:17;5.40;99.90
8537;DHT22;4306;50.210;10.628;2024-03-02T04:28:47;5.30;99.90
8537;DHT22;4306;50.210;10.628;2024-03-02T04:31:15;5.30;99.90
8537;DHT22;4306;50.210;10.628;2024-03-02T04:33:42;5.30;99.90
8537;DHT22;4306;50.210;10.628;2024-03-02T04:36:09;5.40;99.90
8537;DHT22;4306;50.210;10.628;2024-03-02T04:38:36;5.40;99.90
8537;DHT22;4306;50.210;10.628;2024-03-02T04:41:05;5.40;99.90
8537;DHT22;4306;50.210;10.628;2024-03-02T04:43:33;5.30;99.90
8537;DHT22;4306;50.210;10.628;2024-03-02T04:46:01;5.30;99.90
8537;DHT22;4306;50.210;10.628;2024-03-02T04:48:28;5.30;99.90
8537;DHT22;4306;50.210;10.628;2024-03-02T04:50:55;5.40;99.90
8537;DHT22;4306;50.210;10.628;2024-03-02T04:53:22;5.40;99.90
8537;DHT22;4306;50.210;10.628;2024-03-02T04:55:49;5.40;99.90
8537;DHT22;4306;50.210;10.628;2024-03-02T04:58:46;5.40;99.90
8537;DHT22;4306;50.210;10.628;2024-03-02T05:01:13;5.40;99.90
8537;DHT22;4306;50.210;10.628;2024-03-02T05:03:42;5.50;99.90
8537;DHT22;4306;50.210;10.628;2024-03-02T05:06:09;5.50;99.90
8537;DHT22;4306;50.210;10.628;2024-03-02T05:08:36;5.60;99.90
8537;DHT22;4306;50.210;10.628;2024-03-02T05:11:03;5.60;99.90
8537;DHT22;4306;50.210;10.628;2024-03-02T05:13:45;5.70;99.90
8537;DHT22;4306;50.210;10.628;2024-03-02T05:16:13;5.70;99.90
8537;DHT22;4306;50.210;10.628;2024-03-02T05:18:40;5.80;99.90
8537;DHT22;4306;50.210;10.628;2024-03-02T05:21:07;5.80;99.90
8537;DHT22;4306;50.210;10.628;2024-03-02T05:23:34;5.80;99.90
8537;DHT22;4306;50.210;10.628;2024-03-02T05:26:01;5.80;99.90
8537;DHT22;4306;50.210;10.628;2024-03-02T05:28:28;5.80;99.90
8537;DHT22;4306;50.210;10.628;2024-03-02T05:30:56;5.90;99.90
8537;DHT22;4306;50.210;10.628;2024-03-02T05:33:24;5.90;99.90
8537;DHT22;4306;50.210;10.628;2024-03-02T05:35:51;5.90;99.90
8537;DHT22;4306;50.210;10.628;2024-03-02T05:38:18;5.90;99.90
8537;DHT22;4306;50.210;10.628;2024-03-02T05:40:45;5.90;99.90
8537;DHT22;4306;50.210;10.628;2024-03-02T05:43:12;5.90;99.90
8537;DHT22;4306;50.210;10.628;2024-03-02T05:45:39;6.00;99.90
8537;DHT22;4306;50.210;10.628;2024-03-02T05:48:08;6.00;99.90
8537;DHT22;4306;50.210;10.628;2024-03-02T05:50:35;6.00;99.90
8537;DHT22;4306;50.210;10.628;2024-03-02T05:53:03;6.00;99.90
8537;DHT22;4306;50.210;10.628;2024-03-02T05:55:30;6.00;99.90
8537;DHT22;4306;50.210;10.628;2024-03-02T05:57:57;6.10;99.90
8537;DHT22;4306;50.210;10.628;2024-03-02T06:00:41;6.10;99.90
8537;DHT22;4306;50.210;10.628;2024-03-02T06:03:09;6.00;99.90
8537;DHT22;4306;50.210;10.628;2024-03-02T06:05:36;6.10;99.90
8537;DHT22;4306;50.210;10.628;2024-03-02T06:08:04;6.10;99.90
8537;DHT22;4306;50.210;10.628;2024-03-02T06:10:31;6.10;99.90
8537;DHT22;4306;50.210;10.628;2024-03-02T06:12:58;6.10;99.90
8537;DHT22;4306;50.210;10.628;2024-03-02T06:15:25;6.10;99.90
8537;DHT22;4306;50.210;10.628;2024-03-02T06:17:52;6.10;99.90
8537;DHT22;4306;50.210;10.628;2024-03-02T06:20:21;6.10;99.90
8537;DHT22;4306;50.210;10.628;2024-03-02T06:22:48;6.00;99.90
8537;DHT22;4306;50.210;10.628;2024-03-02T06:25:15;6.00;99.90
8537;DHT22;4306;50.210;10.628;2024-03-02T06:27:42;6.10;99.90
8537;DHT22;4306;50.210;10.628;2024-03-02T06:30:10;6.10;99.90
8537;DHT22;4306;50.210;10.628;2024-03-02T06:32:38;6.10;99.90
8537;DHT22;4306;50.210;10.628;2024-03-02T06:35:06;6.20;99.90
8537;DHT22;4306;50.210;10.628;2024-03-02T06:37:38;6.20;99.90
8537;DHT22;4306;50.210;10.628;2024-03-02T06:40:06;6.30;99.90
8537;DHT22;4306;50.210;10.628;2024-03-02T06:42:34;6.40;99.90
8537;DHT22;4306;50.210;10.628;2024-03-02T06:45:01;6.40;99.90
8537;DHT22;4306;50.210;10.628;2024-03-02T06:47:29;6.40;99.90
8537;DHT22;4306;50.210;10.628;2024-03-02T06:49:56;6.50;99.90
8537;DHT22;4306;50.210;10.628;2024-03-02T06:52:24;6.60;99.90
8537;DHT22;4306;50.210;10.628;2024-03-02T06:54:52;6.60;99.90
8537;DHT22;4306;50.210;10.628;2024-03-02T06:57:19;6.70;99.90
8537;DHT22;4306;50.210;10.628;2024-03-02T06:59:47;6.70;99.90
8537;DHT22;4306;50.210;10.628;2024-03-02T07:02:15;6.70;99.90
8537;DHT22;4306;50.210;10.628;2024-03-02T07:04:42;6.80;99.90
8537;DHT22;4306;50.210;10.628;2024-03-02T07:07:10;6.80;99.90
8537;DHT22;4306;50.210;10.628;2024-03-02T07:09:38;6.90;99.90
8537;DHT22;4306;50.210;10.628;2024-03-02T07:12:07;6.90;99.90
8537;DHT22;4306;50.210;10.628;2024-03-02T07:14:35;7.00;99.90
8537;DHT22;4306;50.210;10.628;2024-03-02T07:17:33;7.00;99.90
8537;DHT22;4306;50.210;10.628;2024-03-02T07:20:03;7.00;99.90
8537;DHT22;4306;50.210;10.628;2024-03-02T07:22:32;7.00;99.90
8537;DHT22;4306;50.210;10.628;2024-03-02T07:24:59;7.10;99.90
8537;DHT22;4306;50.210;10.628;2024-03-02T07:27:28;7.00;99.90
8537;DHT22;4306;50.210;10.628;2024-03-02T07:29:55;7.00;99.90
8537;DHT22;4306;50.210;10.628;2024-03-02T07:32:22;7.10;99.90
8537;DHT22;4306;50.210;10.628;2024-03-02T07:34:49;7.20;99.90
8537;DHT22;4306;50.210;10.628;2024-03-02T07:37:17;7.20;99.90
8537;DHT22;4306;50.210;10.628;2024-03-02T07:39:44;7.20;99.90
8537;DHT22;4306;50.210;10.628;2024-03-02T07:42:12;7.30;99.90
8537;DHT22;4306;50.210;10.628;2024-03-02T07:44:40;7.30;99.90
8537;DHT22;4306;50.210;10.628;2024-03-02T07:47:07;7.30;99.90
8537;DHT22;4306;50.210;10.628;2024-03-02T07:49:34;7.30;99.90
8537;DHT22;4306;50.210;10.628;2024-03-02T07:52:02;7.40;99.90
8537;DHT22;4306;50.210;10.628;2024-03-02T07:54:29;7.40;99.90
8537;DHT22;4306;50.210;10.628;2024-03-02T07:56:56;7.50;99.90
8537;DHT22;4306;50.210;10.628;2024-03-02T07:59:24;7.50;99.90
8537;DHT22;4306;50.210;10.628;2024-03-02T08:01:52;7.50;99.90
8537;DHT22;4306;50.210;10.628;2024-03-02T08:04:20;7.50;99.90
8537;DHT22;4306;50.210;10.628;2024-03-02T08:06:48;7.60;99.90
8537;DHT22;4306;50.210;10.628;2024-03-02T08:09:16;7.70;99.90
8537;DHT22;4306;50.210;10.628;2024-03-02T08:11:43;7.80;99.90
8537;DHT22;4306;50.210;10.628;2024-03-02T08:14:10;7.70;99.90
8537;DHT22;4306;50.210;10.628;2024-03-02T08:16:37;7.80;99.90
8537;DHT22;4306;50.210;10.628;2024-03-02T08:19:05;7.90;99.90
8537;DHT22;4306;50.210;10.628;2024-03-02T08:21:34;8.00;99.90
8537;DHT22;4306;50.210;10.628;2024-03-02T08:24:02;8.10;99.90
8537;DHT22;4306;50.210;10.628;2024-03-02T08:26:29;8.20;99.90
8537;DHT22;4306;50.210;10.628;2024-03-02T08:28:57;8.20;99.90
8537;DHT22;4306;50.210;10.628;2024-03-02T08:31:24;8.30;99.90
8537;DHT22;4306;50.210;10.628;2024-03-02T08:33:51;8.40;99.90
8537;DHT22;4306;50.210;10.628;2024-03-02T08:36:20;8.40;99.90
8537;DHT22;4306;50.210;10.628;2024-03-02T08:38:48;8.40;99.90
8537;DHT22;4306;50.210;10.628;2024-03-02T08:41:16;8.50;99.90
8537;DHT22;4306;50.210;10.628;2024-03-02T08:43:45;8.60;99.90
8537;DHT22;4306;50.210;10.628;2024-03-02T08:46:15;8.60;99.90
8537;DHT22;4306;50.210;10.628;2024-03-02T08:48:54;8.50;99.90
8537;DHT22;4306;50.210;10.628;2024-03-02T08:51:30;8.50;99.90
8537;DHT22;4306;50.210;10.628;2024-03-02T08:53:57;8.60;99.90
8537;DHT22;4306;50.210;10.628;2024-03-02T08:56:24;8.70;99.90
8537;DHT22;4306;50.210;10.628;2024-03-02T08:58:52;8.80;99.90
8537;DHT22;4306;50.210;10.628;2024-03-02T09:01:19;8.90;99.90
8537;DHT22;4306;50.210;10.628;2024-03-02T09:03:46;8.80;99.90
8537;DHT22;4306;50.210;10.628;2024-03-02T09:06:15;9.00;99.90
8537;DHT22;4306;50.210;10.628;2024-03-02T09:08:44;9.00;99.90
8537;DHT22;4306;50.210;10.628;2024-03-02T09:11:12;9.00;99.90
8537;DHT22;4306;50.210;10.628;2024-03-02T09:13:39;9.00;99.90
8537;DHT22;4306;50.210;10.628;2024-03-02T09:16:07;9.10;99.90
8537;DHT22;4306;50.210;10.628;2024-03-02T09:18:36;9.10;99.90
8537;DHT22;4306;50.210;10.628;2024-03-02T09:21:04;9.20;99.90
8537;DHT22;4306;50.210;10.628;2024-03-02T09:23:32;9.30;99.90
8537;DHT22;4306;50.210;10.628;2024-03-02T09:26:00;9.30;99.90
8537;DHT22;4306;50.210;10.628;2024-03-02T09:28:28;9.30;99.90
8537;DHT22;4306;50.210;10.628;2024-03-02T09:30:55;9.40;99.90
8537;DHT22;4306;50.210;10.628;2024-03-02T09:33:22;9.30;99.90
8537;DHT22;4306;50.210;10.628;2024-03-02T09:35:49;9.40;99.90
8537;DHT22;4306;50.210;10.628;2024-03-02T09:38:16;9.50;99.90
8537;DHT22;4306;50.210;10.628;2024-03-02T09:40:44;9.50;99.90
8537;DHT22;4306;50.210;10.628;2024-03-02T09:43:13;9.50;99.90
8537;DHT22;4306;50.210;10.628;2024-03-02T09:45:40;9.60;99.90
8537;DHT22;4306;50.210;10.628;2024-03-02T09:48:08;9.60;99.90
8537;DHT22;4306;50.210;10.628;2024-03-02T09:50:35;9.70;99.90
8537;DHT22;4306;50.210;10.628;2024-03-02T09:53:02;9.70;99.90
8537;DHT22;4306;50.210;10.628;2024-03-02T09:55:29;9.90;99.90
8537;DHT22;4306;50.210;10.628;2024-03-02T09:57:56;9.80;99.90
8537;DHT22;4306;50.210;10.628;2024-03-02T10:00:25;9.70;99.90
8537;DHT22;4306;50.210;10.628;2024-03-02T10:02:52;9.80;99.90
8537;DHT22;4306;50.210;10.628;2024-03-02T10:05:27;9.80;99.90
8537;DHT22;4306;50.210;10.628;2024-03-02T10:07:59;9.90;99.90
8537;DHT22;4306;50.210;10.628;2024-03-02T10:10:35;9.90;99.90
8537;DHT22;4306;50.210;10.628;2024-03-02T10:13:06;10.00;99.90
8537;DHT22;4306;50.210;10.628;2024-03-02T10:15:36;10.00;99.90
8537;DHT22;4306;50.210;10.628;2024-03-02T10:18:04;10.10;99.90
8537;DHT22;4306;50.210;10.628;2024-03-02T10:20:31;10.30;99.90
8537;DHT22;4306;50.210;10.628;2024-03-02T10:23:10;10.20;99.90
8537;DHT22;4306;50.210;10.628;2024-03-02T10:25:38;10.20;99.90
8537;DHT22;4306;50.210;10.628;2024-03-02T10:28:05;10.30;99.90
8537;DHT22;4306;50.210;10.628;2024-03-02T10:30:34;10.40;99.90
8537;DHT22;4306;50.210;10.628;2024-03-02T10:33:02;10.40;99.90
8537;DHT22;4306;50.210;10.628;2024-03-02T10:35:31;10.50;99.90
8537;DHT22;4306;50.210;10.628;2024-03-02T10:38:04;10.50;99.90
8537;DHT22;4306;50.210;10.628;2024-03-02T10:40:31;10.50;99.90
8537;DHT22;4306;50.210;10.628;2024-03-02T10:42:59;10.60;99.90
8537;DHT22;4306;50.210;10.628;2024-03-02T10:45:28;10.80;99.90
8537;DHT22;4306;50.210;10.628;2024-03-02T10:47:58;10.80;99.90
8537;DHT22;4306;50.210;10.628;2024-03-02T10:50:25;10.80;99.90
8537;DHT22;4306;50.210;10.628;2024-03-02T10:52:52;10.90;99.90
8537;DHT22;4306;50.210;10.628;2024-03-02T10:55:19;10.70;99.90
8537;DHT22;4306;50.210;10.628;2024-03-02T10:57:51;10.70;99.90
8537;DHT22;4306;50.210;10.628;2024-03-02T11:00:20;10.80;99.90
8537;DHT22;4306;50.210;10.628;2024-03-02T11:02:52;10.80;99.90
8537;DHT22;4306;50.210;10.628;2024-03-02T11:05:27;10.90;99.90
8537;DHT22;4306;50.210;10.628;2024-03-02T11:08:00;10.90;99.90
8537;DHT22;4306;50.210;10.628;2024-03-02T11:10:34;11.00;99.90
8537;DHT22;4306;50.210;10.628;2024-03-02T11:13:05;11.10;99.90
8537;DHT22;4306;50.210;10.628;2024-03-02T11:15:36;11.30;99.90
8537;DHT22;4306;50.210;10.628;2024-03-02T11:18:04;11.30;99.90
8537;DHT22;4306;50.210;10.628;2024-03-02T11:20:36;11.30;99.90
8537;DHT22;4306;50.210;10.628;2024-03-02T11:23:06;11.40;99.90
8537;DHT22;4306;50.210;10.628;2024-03-02T11:25:33;11.40;99.90
8537;DHT22;4306;50.210;10.628;2024-03-02T11:28:02;11.40;99.90
8537;DHT22;4306;50.210;10.628;2024-03-02T11:30:48;11.30;99.90
8537;DHT22;4306;50.210;10.628;2024-03-02T11:33:26;11.50;99.90
8537;DHT22;4306;50.210;10.628;2024-03-02T11:35:58;11.50;99.90
8537;DHT22;4306;50.210;10.628;2024-03-02T11:38:30;11.50;99.90
8537;DHT22;4306;50.210;10.628;2024-03-02T11:40:59;11.50;99.90
8537;DHT22;4306;50.210;10.628;2024-03-02T11:43:28;11.60;99.90
8537;DHT22;4306;50.210;10.628;2024-03-02T11:45:59;11.60;99.90
8537;DHT22;4306;50.210;10.628;2024-03-02T11:48:29;11.80;99.90
8537;DHT22;4306;50.210;10.628;2024-03-02T11:51:00;11.80;99.90
8537;DHT22;4306;50.210;10.628;2024-03-02T11:53:28;11.90;99.90
8537;DHT22;4306;50.210;10.628;2024-03-02T11:55:56;12.00;99.90
8537;DHT22;4306;50.210;10.628;2024-03-02T11:58:23;12.10;99.90
8537;DHT22;4306;50.210;10.628;2024-03-02T12:00:52;12.10;99.90
8537;DHT22;4306;50.210;10.628;2024-03-02T12:03:21;12.20;99.90
8537;DHT22;4306;50.210;10.628;2024-03-02T12:05:51;12.30;99.90
8537;DHT22;4306;50.210;10.628;2024-03-02T12:08:20;12.10;99.90
8537;DHT22;4306;50.210;10.628;2024-03-02T12:10:59;12.20;99.90
8537;DHT22;4306;50.210;10.628;2024-03-02T12:13:27;12.30;99.90
8537;DHT22;4306;50.210;10.628;2024-03-02T12:15:55;12.40;99.90
8537;DHT22;4306;50.210;10.628;2024-03-02T12:18:22;12.40;99.90
8537;DHT22;4306;50.210;10.628;2024-03-02T12:20:50;12.40;99.90
8537;DHT22;4306;50.210;10.628;2024-03-02T12:23:39;12.60;99.90
8537;DHT22;4306;50.210;10.628;2024-03-02T12:26:15;12.70;99.90
8537;DHT22;4306;50.210;10.628;2024-03-02T12:28:43;12.80;99.90
8537;DHT22;4306;50.210;10.628;2024-03-02T12:31:10;12.80;99.80
8537;DHT22;4306;50.210;10.628;2024-03-02T12:33:37;12.70;99.90
8537;DHT22;4306;50.210;10.628;2024-03-02T12:36:05;12.80;99.80
8537;DHT22;4306;50.210;10.628;2024-03-02T12:38:33;13.00;99.50
8537;DHT22;4306;50.210;10.628;2024-03-02T12:41:00;12.90;99.00
8537;DHT22;4306;50.210;10.628;2024-03-02T12:43:30;12.70;98.50
8537;DHT22;4306;50.210;10.628;2024-03-02T12:45:58;12.60;98.40
8537;DHT22;4306;50.210;10.628;2024-03-02T12:48:25;12.70;99.10
8537;DHT22;4306;50.210;10.628;2024-03-02T12:50:52;12.60;98.50
8537;DHT22;4306;50.210;10.628;2024-03-02T12:53:21;12.40;98.70
8537;DHT22;4306;50.210;10.628;2024-03-02T12:56:00;12.40;99.70
8537;DHT22;4306;50.210;10.628;2024-03-02T12:58:39;12.70;99.30
8537;DHT22;4306;50.210;10.628;2024-03-02T13:01:07;12.70;97.50
8537;DHT22;4306;50.210;10.628;2024-03-02T13:03:36;12.70;97.30
8537;DHT22;4306;50.210;10.628;2024-03-02T13:06:04;12.80;98.20
8537;DHT22;4306;50.210;10.628;2024-03-02T13:08:31;12.80;97.80
8537;DHT22;4306;50.210;10.628;2024-03-02T13:11:00;12.80;98.30
8537;DHT22;4306;50.210;10.628;2024-03-02T13:13:28;13.00;97.70
8537;DHT22;4306;50.210;10.628;2024-03-02T13:15:57;12.90;96.70
8537;DHT22;4306;50.210;10.628;2024-03-02T13:18:24;12.90;97.20
8537;DHT22;4306;50.210;10.628;2024-03-02T13:20:52;13.10;97.00
8537;DHT22;4306;50.210;10.628;2024-03-02T13:23:21;13.20;96.30
8537;DHT22;4306;50.210;10.628;2024-03-02T13:25:48;13.30;97.20
8537;DHT22;4306;50.210;10.628;2024-03-02T13:28:17;13.30;95.00
8537;DHT22;4306;50.210;10.628;2024-03-02T13:30:44;13.40;94.60
8537;DHT22;4306;50.210;10.628;2024-03-02T13:33:11;13.40;95.00
8537;DHT22;4306;50.210;10.628;2024-03-02T13:35:38;13.50;94.60
8537;DHT22;4306;50.210;10.628;2024-03-02T13:38:05;13.50;95.30
8537;DHT22;4306;50.210;10.628;2024-03-02T13:40:32;13.60;94.90
8537;DHT22;4306;50.210;10.628;2024-03-02T13:43:01;13.60;93.70
8537;DHT22;4306;50.210;10.628;2024-03-02T13:45:29;13.70;93.80
8537;DHT22;4306;50.210;10.628;2024-03-02T13:47:56;13.50;93.20
8537;DHT22;4306;50.210;10.628;2024-03-02T13:50:24;13.40;93.50
8537;DHT22;4306;50.210;10.628;2024-03-02T13:52:51;13.40;93.30
8537;DHT22;4306;50.210;10.628;2024-03-02T13:55:18;13.30;93.10
8537;DHT22;4306;50.210;10.628;2024-03-02T13:57:46;13.40;93.80
8537;DHT22;4306;50.210;10.628;2024-03-02T14:00:14;13.40;93.30
8537;DHT22;4306;50.210;10.628;2024-03-02T14:02:45;13.40;93.50
8537;DHT22;4306;50.210;10.628;2024-03-02T14:05:15;13.50;93.20
8537;DHT22;4306;50.210;10.628;2024-03-02T14:07:42;13.60;92.30
8537;DHT22;4306;50.210;10.628;2024-03-02T14:10:10;13.80;92.90
8537;DHT22;4306;50.210;10.628;2024-03-02T14:12:37;13.80;92.40
8537;DHT22;4306;50.210;10.628;2024-03-02T14:15:05;13.90;93.40
8537;DHT22;4306;50.210;10.628;2024-03-02T14:17:34;14.00;92.90
8537;DHT22;4306;50.210;10.628;2024-03-02T14:20:02;13.90;92.30
8537;DHT22;4306;50.210;10.628;2024-03-02T14:22:31;13.90;91.20
8537;DHT22;4306;50.210;10.628;2024-03-02T14:24:59;13.80;92.70
8537;DHT22;4306;50.210;10.628;2024-03-02T14:27:26;14.00;93.70
8537;DHT22;4306;50.210;10.628;2024-03-02T14:29:53;14.20;93.30
8537;DHT22;4306;50.210;10.628;2024-03-02T14:32:20;14.10;91.80
8537;DHT22;4306;50.210;10.628;2024-03-02T14:34:47;14.10;93.40
8537;DHT22;4306;50.210;10.628;2024-03-02T14:37:16;14.10;93.50
8537;DHT22;4306;50.210;10.628;2024-03-02T14:39:43;13.90;93.20
8537;DHT22;4306;50.210;10.628;2024-03-02T14:42:10;13.90;93.90
8537;DHT22;4306;50.210;10.628;2024-03-02T14:44:38;13.70;94.40
8537;DHT22;4306;50.210;10.628;2024-03-02T14:47:06;13.60;93.90
8537;DHT22;4306;50.210;10.628;2024-03-02T14:49:33;13.80;93.30
8537;DHT22;4306;50.210;10.628;2024-03-02T14:52:03;13.90;93.90
8537;DHT22;4306;50.210;10.628;2024-03-02T14:54:32;14.00;93.80
8537;DHT22;4306;50.210;10.628;2024-03-02T14:57:01;13.90;92.80
8537;DHT22;4306;50.210;10.628;2024-03-02T14:59:28;13.80;92.80
8537;DHT22;4306;50.210;10.628;2024-03-02T15:01:55;13.90;92.50
8537;DHT22;4306;50.210;10.628;2024-03-02T15:04:23;13.70;92.20
8537;DHT22;4306;50.210;10.628;2024-03-02T15:06:50;13.60;92.50
8537;DHT22;4306;50.210;10.628;2024-03-02T15:09:17;13.60;92.40
8537;DHT22;4306;50.210;10.628;2024-03-02T15:11:46;13.60;92.20
8537;DHT22;4306;50.210;10.628;2024-03-02T15:14:14;13.60;92.20
8537;DHT22;4306;50.210;10.628;2024-03-02T15:16:41;13.50;92.30
8537;DHT22;4306;50.210;10.628;2024-03-02T15:19:08;13.40;92.50
8537;DHT22;4306;50.210;10.628;2024-03-02T15:21:35;13.40;93.00
8537;DHT22;4306;50.210;10.628;2024-03-02T15:24:03;13.40;93.40
8537;DHT22;4306;50.210;10.628;2024-03-02T15:26:30;13.50;92.90
8537;DHT22;4306;50.210;10.628;2024-03-02T15:28:59;13.50;93.40
8537;DHT22;4306;50.210;10.628;2024-03-02T15:31:26;13.50;93.70
8537;DHT22;4306;50.210;10.628;2024-03-02T15:33:53;13.60;93.80
8537;DHT22;4306;50.210;10.628;2024-03-02T15:36:22;13.60;93.70
8537;DHT22;4306;50.210;10.628;2024-03-02T15:38:49;13.60;94.00
8537;DHT22;4306;50.210;10.628;2024-03-02T15:41:16;13.60;94.20
8537;DHT22;4306;50.210;10.628;2024-03-02T15:43:43;13.60;94.10
8537;DHT22;4306;50.210;10.628;2024-03-02T15:46:13;13.60;94.10
8537;DHT22;4306;50.210;10.628;2024-03-02T15:48:40;13.30;94.80
8537;DHT22;4306;50.210;10.628;2024-03-02T15:51:07;12.90;95.50
8537;DHT22;4306;50.210;10.628;2024-03-02T15:53:36;12.70;95.80
8537;DHT22;4306;50.210;10.628;2024-03-02T15:56:03;12.80;96.40
8537;DHT22;4306;50.210;10.628;2024-03-02T15:58:30;12.60;96.60
8537;DHT22;4306;50.210;10.628;2024-03-02T16:01:00;12.40;97.00
8537;DHT22;4306;50.210;10.628;2024-03-02T16:03:28;12.40;97.00